Prague, Czech Republic

5:41 PM CET on February 10, 2016 (GMT +0100)
Zlicinske zahrady | | Change Station
CLOSE
Current Station
Personal Weather Station
Location: Česká Republika,
Elevation: 1211 ft
Nearby Weather Stations

Elev 1211 ft 50.06 °N, 14.29 °E | Updated 30 minutes ago

Mostly Cloudy
Mostly Cloudy
39.4 °F
Feels Like 39 °F
N
1.6
Wind Variable Wind from NW
Gusts 3.1 mph

Today
High -- | Low -- °F
--% Chance of Precip.
Yesterday
High -- | Low -- °F
Precip. -- in
Pressure 29.39 in
Visibility 6.2 miles
Clouds Mostly Cloudy 4100 ft
Windchill 39 °F
Dew Point 26 °F
Humidity 58%
Rainfall 0.00 in
Snow Depth Not available.
7:23 AM 5:11 PM
Waxing Crescent, 6% visible
METAR LKPR 101630Z 24011KT 9999 BKN041 04/M02 Q0995 NOSIG
Pressure 29.39 in
Visibility 6.2 miles
Clouds Mostly Cloudy 4100 ft
Windchill 39 °F
Dew Point 26 °F
Humidity 58%
Rainfall 0.00 in
Snow Depth Not available.
7:23 AM 5:11 PM
Waxing Crescent, 6% visible
METAR LKPR 101630Z 24011KT 9999 BKN041 04/M02 Q0995 NOSIG

10-Day Weather Forecast

Almanac

Astronomy

Feb. 10, 2016 Rise Set
Actual Time
Civil Twilight
Nautical Twilight
Astronomical Twilight
Moon
Length of Visible Light
Length of Day
Tomorrow will be .
, % of the Moon is Illuminated

Today's Extremes

Country Highs Country Lows

Community

WunderPhotos

Upload Photos

1,891,891 photos uploaded!

WunderBlog® & News

Nearby

Air Quality

  Air Quality AQ Index Pollutant
Not available.

Snow Depth

Station Depth Elevation

Earthquake Activity

City Distance Mag. Time & Date
Minimum magnitude displayed is 2.5.

Coastal Water Temperatures

Place Temperature

Stations

Nearby Weather Stations

Station Location Temp. Windchill Dew Point Humidity Wind Precip. Elev Updated Type